Disclaimer

Please do not use the information listed here in-flight or in-navigation, as they are not provided to us by the airports but are provided by volunteers, so they might be outdated.

Search


Regions


Airport information page

Radio informations:
Tower (TWR) - 129.8 MHz
LANGEN RADAR - 129.3 MHz
LANGEN INFO - 123.525 MHz

Airport informations:
Latitude: 52° 08' 04.71" N
Longitude: 007° 41' 05.39" E
Elevation: 160 feet - 49 meters
Operating hours: N/A
Operating agency: Civil government, landing fees and diplomatic clearance may be required
Timezone: UTC+1(+2DT) - Last Sunday in March to last Sunday in October
Fuel: Jet A1, without icing nhibitor.

100/130 MIL Spec, low lead, aviation gasoline (BLUE)

Runway information:
07/25 - 7119 x 148 feet< - >2170 x 45 meters

Recent METARs:
EDDG 192050Z 06008KT 010V130 9999 SCT024 BKN034 04/M00 Q1017 NOSIG
EDDG 192120Z 07010G22KT 330V130 9999 FEW024 BKN039 04/M01 Q1017 NOSIG
EDDG 192150Z 07010G24KT 330V140 9999 FEW024 BKN039 04/M02 Q1017 NOSIG

Airport on the map: